RJTTRJAA

Guest
Details From RJTT - Tokyo Haneda Intl
To RJAA - NARITA INTL
Flight Number -
Tags generated
Created
Modified
Stats Distance 33 nm / 61 km
Max Altitude 1,200 ft / 366 m
Waypoints 3
Social Downloads 13
Likes 0
Share VATSIM

Download

Looking for another format? Having issues loading an existing format? Contact us
Advertisement - Login to hide

Notes

Basic altitude profile: - Ascent Rate: 2500ft/min - Ascent Speed: 250kts - Cruise Altitude: 35000ft - Cruise Speed: 420kts - Descent Rate: 1500ft/min - Descent Speed: 250kts Options: - Use NATs: yes - Use PACOTS: yes - Use low airways: yes - Use high airways: no

Route

RJTT TYE RJAA

ID Type Via Altitude Latitude Longitude Leg Dist Tot Dist Heading (true) Name
O RJTT APT - 0 ft / 0 m 35.54825˚ 139.78855˚ - 0 nm - Tokyo Haneda Intl
TYE VOR - 1,200 ft / 366 m 35.78359˚ 140.26299˚ 27 nm 27 nm 58° / 59° SAKURA VOR-DME
O RJAA APT - 0 ft / 0 m 35.77655˚ 140.38277˚ 5 nm 32 nm 94° / 94° NARITA INTL

Altitude Profile

Advertisement - Login to hide

RJTT

Details ICAO RJTT (HND)
Name Tokyo Haneda Intl
Region Japan
Timezone Asia/Tokyo (UTC+9.0)
Stats Elevation 20 ft / 6 m (AMSL)
Location 35.548254° 139.788554°
Runways 4
Magnetic Variation 7.425° W

METAR

RJTT 140430Z 33014KT 300V360 9999 FEW030 10/M08 Q1020 NOSIG

Decode

TAF

TAF RJTT 132305Z 1400/1506 34014KT 9999 FEW030 BECMG 1500/1503 10004KT

Decode

Departure Runways

ID Width Length Bearing (true) Bearing (mag) Surface Threshold Offset Overrun Length
04 200 ft / 61 m 8,211 ft / 2,503 m 34.90° 42.32° Asphalt 0 ft / 0 m 200 ft / 61 m
05 197 ft / 60 m 8,206 ft / 2,501 m 42.44° 49.86° Asphalt 0 ft / 0 m 197 ft / 60 m
16L 200 ft / 61 m 9,856 ft / 3,004 m 150.00° 157.42° Asphalt 0 ft / 0 m 200 ft / 61 m
16R 200 ft / 61 m 9,986 ft / 3,044 m 150.01° 157.43° Asphalt 131 ft / 40 m 0 ft / 0 m
22 200 ft / 61 m 8,211 ft / 2,503 m 214.90° 222.32° Asphalt 0 ft / 0 m 200 ft / 61 m
23 197 ft / 60 m 8,206 ft / 2,501 m 222.45° 229.87° Asphalt 0 ft / 0 m 197 ft / 60 m
34L 200 ft / 61 m 9,986 ft / 3,044 m 330.02° 337.44° Asphalt 0 ft / 0 m 197 ft / 60 m
34R 200 ft / 61 m 9,856 ft / 3,004 m 330.01° 337.43° Asphalt 0 ft / 0 m 200 ft / 61 m

RJAA

Details ICAO RJAA (NRT)
Name NARITA INTL
Region Japan
Timezone Asia/Tokyo (UTC+9.0)
Stats Elevation 141 ft / 43 m (AMSL)
Location 35.776552° 140.382770°
Runways 2
Magnetic Variation 7.405° W

METAR

RJAA 140430Z 34010KT 9999 FEW030 09/M05 Q1019 NOSIG

Decode

TAF

TAF RJAA 132306Z 1400/1506 33012KT 9999 FEW030= TAF RJBB 132305Z 1400/1506 34015KT 9999 FEW020 SCT050 BECMG 1415/1418 04008KT

Decode

Destination Runways

ID Width Length Bearing (true) Bearing (mag) Surface Threshold Offset Overrun Length
16L 196 ft / 60 m 7,162 ft / 2,183 m 149.61° 157.02° Asphalt 190 ft / 58 m 0 ft / 0 m
16R 196 ft / 60 m 13,142 ft / 4,006 m 149.61° 157.02° Asphalt 0 ft / 0 m 410 ft / 125 m
34L 196 ft / 60 m 13,142 ft / 4,006 m 329.62° 337.03° Asphalt 0 ft / 0 m 415 ft / 126 m
34R 196 ft / 60 m 7,162 ft / 2,183 m 329.62° 337.03° Asphalt 190 ft / 58 m 0 ft / 0 m

Approach Navaids

Runway Type Ident Frequency Range Bearing (true) Bearing (mag) Slope Elevation
16L Localiser ITM 110.70 MHz 18 nm / 33 km 149.62° 157.02° - 141 ft / 43 m (AMSL)
16L Glidescope ITM 110.70 MHz 10 nm / 19 km 149.62° 157.02° 3.00° 141 ft / 43 m (AMSL)
16L DME ITM 110.70 MHz 18 nm / 33 km - - - 145 ft / 44 m (AMSL)
16R Localiser IKF 111.50 MHz 18 nm / 33 km 149.63° 157.03° - 141 ft / 43 m (AMSL)
16R Glidescope IKF 111.50 MHz 10 nm / 19 km 149.62° 157.02° 3.00° 141 ft / 43 m (AMSL)
16R DME IKF 111.50 MHz 18 nm / 33 km - - - 145 ft / 44 m (AMSL)
34L Localiser IYQ 111.90 MHz 18 nm / 33 km 329.61° 337.01° - 141 ft / 43 m (AMSL)
34L Glidescope IYQ 111.90 MHz 10 nm / 19 km 329.62° 337.02° 3.00° 141 ft / 43 m (AMSL)
34L DME IYQ 111.90 MHz 18 nm / 33 km - - - 153 ft / 47 m (AMSL)
34R Localiser ITJ 110.90 MHz 18 nm / 33 km 329.62° 337.02° - 141 ft / 43 m (AMSL)
34R Glidescope ITJ 110.90 MHz 10 nm / 19 km 329.62° 337.02° 3.00° 141 ft / 43 m (AMSL)
34R DME ITJ 110.90 MHz 18 nm / 33 km - - - 148 ft / 45 m (AMSL)

Popular Alternatives